sensor_id;sensor_type;location;lat;lon;timestamp;temperature;humidity
29255;DHT22;16277;48.890;2.306;2024-01-15T00:11:05;6.50;99.90
29255;DHT22;16277;48.890;2.306;2024-01-15T00:26:10;7.30;99.90
29255;DHT22;16277;48.890;2.306;2024-01-15T00:41:14;6.50;99.90
29255;DHT22;16277;48.890;2.306;2024-01-15T00:56:19;7.00;99.90
29255;DHT22;16277;48.890;2.306;2024-01-15T01:11:23;7.20;99.90
29255;DHT22;16277;48.890;2.306;2024-01-15T01:26:28;6.50;99.90
29255;DHT22;16277;48.890;2.306;2024-01-15T01:41:32;6.60;99.90
29255;DHT22;16277;48.890;2.306;2024-01-15T01:56:37;7.30;99.90
29255;DHT22;16277;48.890;2.306;2024-01-15T02:11:41;7.40;99.90
29255;DHT22;16277;48.890;2.306;2024-01-15T02:26:46;7.80;99.90
29255;DHT22;16277;48.890;2.306;2024-01-15T02:41:51;7.80;99.90
29255;DHT22;16277;48.890;2.306;2024-01-15T02:56:55;6.50;99.90
29255;DHT22;16277;48.890;2.306;2024-01-15T03:11:59;7.40;99.90
29255;DHT22;16277;48.890;2.306;2024-01-15T03:27:04;7.70;99.90
29255;DHT22;16277;48.890;2.306;2024-01-15T03:42:09;7.00;99.90
29255;DHT22;16277;48.890;2.306;2024-01-15T03:57:13;6.70;99.90
29255;DHT22;16277;48.890;2.306;2024-01-15T04:12:18;6.30;99.90
29255;DHT22;16277;48.890;2.306;2024-01-15T04:27:22;6.20;99.90
29255;DHT22;16277;48.890;2.306;2024-01-15T04:42:27;6.90;99.90
29255;DHT22;16277;48.890;2.306;2024-01-15T04:57:32;7.00;99.90
29255;DHT22;16277;48.890;2.306;2024-01-15T05:12:36;7.70;99.90
29255;DHT22;16277;48.890;2.306;2024-01-15T05:27:41;6.80;99.90
29255;DHT22;16277;48.890;2.306;2024-01-15T05:42:46;6.70;99.90
29255;DHT22;16277;48.890;2.306;2024-01-15T05:57:50;6.90;99.90
29255;DHT22;16277;48.890;2.306;2024-01-15T06:12:55;7.00;99.90
29255;DHT22;16277;48.890;2.306;2024-01-15T06:28:00;7.20;99.90
29255;DHT22;16277;48.890;2.306;2024-01-15T06:43:05;7.20;99.90
29255;DHT22;16277;48.890;2.306;2024-01-15T06:58:09;6.80;99.90
29255;DHT22;16277;48.890;2.306;2024-01-15T07:13:14;6.70;99.90
29255;DHT22;16277;48.890;2.306;2024-01-15T07:28:18;6.80;99.90
29255;DHT22;16277;48.890;2.306;2024-01-15T07:43:23;6.80;99.90
29255;DHT22;16277;48.890;2.306;2024-01-15T07:58:27;6.30;99.90
29255;DHT22;16277;48.890;2.306;2024-01-15T08:13:32;6.80;99.90
29255;DHT22;16277;48.890;2.306;2024-01-15T08:28:36;7.40;99.90
29255;DHT22;16277;48.890;2.306;2024-01-15T08:43:42;7.20;99.90
29255;DHT22;16277;48.890;2.306;2024-01-15T08:58:46;7.30;99.90
29255;DHT22;16277;48.890;2.306;2024-01-15T09:13:51;7.20;99.90
29255;DHT22;16277;48.890;2.306;2024-01-15T09:28:56;6.90;99.90
29255;DHT22;16277;48.890;2.306;2024-01-15T09:44:02;7.90;99.90
29255;DHT22;16277;48.890;2.306;2024-01-15T09:59:07;7.10;99.90
29255;DHT22;16277;48.890;2.306;2024-01-15T10:14:12;7.70;99.90
29255;DHT22;16277;48.890;2.306;2024-01-15T10:29:17;7.90;99.90
29255;DHT22;16277;48.890;2.306;2024-01-15T10:44:21;8.40;99.90
29255;DHT22;16277;48.890;2.306;2024-01-15T10:59:26;7.50;99.90
29255;DHT22;16277;48.890;2.306;2024-01-15T11:14:38;8.30;99.90
29255;DHT22;16277;48.890;2.306;2024-01-15T11:29:43;8.00;98.30
29255;DHT22;16277;48.890;2.306;2024-01-15T11:44:48;8.90;97.40
29255;DHT22;16277;48.890;2.306;2024-01-15T11:59:53;7.90;97.50
29255;DHT22;16277;48.890;2.306;2024-01-15T12:14:58;8.40;97.00
29255;DHT22;16277;48.890;2.306;2024-01-15T12:30:03;8.20;97.30
29255;DHT22;16277;48.890;2.306;2024-01-15T12:45:09;8.30;96.20
29255;DHT22;16277;48.890;2.306;2024-01-15T13:00:15;8.20;96.10
29255;DHT22;16277;48.890;2.306;2024-01-15T13:15:21;7.70;95.40
29255;DHT22;16277;48.890;2.306;2024-01-15T13:30:25;7.50;94.30
29255;DHT22;16277;48.890;2.306;2024-01-15T13:45:30;8.40;93.60
29255;DHT22;16277;48.890;2.306;2024-01-15T14:00:35;7.90;92.00
29255;DHT22;16277;48.890;2.306;2024-01-15T14:15:40;7.80;94.00
29255;DHT22;16277;48.890;2.306;2024-01-15T14:30:44;8.20;94.40
29255;DHT22;16277;48.890;2.306;2024-01-15T14:45:49;8.30;94.10
29255;DHT22;16277;48.890;2.306;2024-01-15T15:00:53;8.30;91.10
29255;DHT22;16277;48.890;2.306;2024-01-15T15:15:59;8.40;89.40
29255;DHT22;16277;48.890;2.306;2024-01-15T15:31:04;8.00;90.00
29255;DHT22;16277;48.890;2.306;2024-01-15T15:46:11;8.30;89.90
29255;DHT22;16277;48.890;2.306;2024-01-15T16:01:16;7.70;91.40
29255;DHT22;16277;48.890;2.306;2024-01-15T16:16:21;8.00;91.40
29255;DHT22;16277;48.890;2.306;2024-01-15T16:31:45;7.80;91.00
29255;DHT22;16277;48.890;2.306;2024-01-15T16:46:49;8.30;91.70
29255;DHT22;16277;48.890;2.306;2024-01-15T17:01:54;7.80;91.80
29255;DHT22;16277;48.890;2.306;2024-01-15T17:16:58;7.50;91.80
29255;DHT22;16277;48.890;2.306;2024-01-15T17:32:03;8.10;91.20
29255;DHT22;16277;48.890;2.306;2024-01-15T17:47:08;8.90;91.00
29255;DHT22;16277;48.890;2.306;2024-01-15T18:02:13;8.00;91.40
29255;DHT22;16277;48.890;2.306;2024-01-15T18:17:17;8.00;92.40
29255;DHT22;16277;48.890;2.306;2024-01-15T18:32:24;8.20;91.60
29255;DHT22;16277;48.890;2.306;2024-01-15T18:47:29;8.90;91.30
29255;DHT22;16277;48.890;2.306;2024-01-15T19:02:34;9.10;91.20
29255;DHT22;16277;48.890;2.306;2024-01-15T19:17:38;8.10;92.90
29255;DHT22;16277;48.890;2.306;2024-01-15T19:32:43;8.20;92.80
29255;DHT22;16277;48.890;2.306;2024-01-15T19:47:48;8.70;92.40
29255;DHT22;16277;48.890;2.306;2024-01-15T20:02:52;8.20;92.40
29255;DHT22;16277;48.890;2.306;2024-01-15T20:17:57;9.60;91.70
29255;DHT22;16277;48.890;2.306;2024-01-15T20:33:03;9.30;91.90
29255;DHT22;16277;48.890;2.306;2024-01-15T20:48:07;8.00;94.10
29255;DHT22;16277;48.890;2.306;2024-01-15T21:03:12;9.30;92.30
29255;DHT22;16277;48.890;2.306;2024-01-15T21:18:17;8.70;93.60
29255;DHT22;16277;48.890;2.306;2024-01-15T21:33:21;9.30;92.60
29255;DHT22;16277;48.890;2.306;2024-01-15T21:48:26;9.60;92.40
29255;DHT22;16277;48.890;2.306;2024-01-15T22:03:31;9.30;92.40
29255;DHT22;16277;48.890;2.306;2024-01-15T22:18:35;9.60;92.20
29255;DHT22;16277;48.890;2.306;2024-01-15T22:33:40;9.50;92.50
29255;DHT22;16277;48.890;2.306;2024-01-15T22:48:44;9.50;92.40
29255;DHT22;16277;48.890;2.306;2024-01-15T23:03:49;9.60;92.40
29255;DHT22;16277;48.890;2.306;2024-01-15T23:18:54;8.60;93.70
29255;DHT22;16277;48.890;2.306;2024-01-15T23:34:00;9.40;93.00
29255;DHT22;16277;48.890;2.306;2024-01-15T23:49:04;9.40;92.70
